KDMO/DMO METAR and TAF weather

Enter ICAO airport designator
Station Type Date Time Source
KDMO METAR 2022/06/28 14:53 UTC NOAA

KDMO 281453Z AUTO 18007KT 10SM 25/12 A3029 RMK AO2 SLP248 T02500117 $


Station Type Date Time Source
KDMO Decoded METAR 2022/06/28 14:53 UTC NOAA

SEDALIA MEMORIAL AIRPORT, MO, United States (KDMO) 38-43N 93-10W 274M
Jun 28, 2022 - 10:53 AM EDT / 2022.06.28 1453 UTC
Wind: from the S (180 degrees) at 8 MPH (7 KT):0
Visibility: 10 mile(s):0
Temperature: 77.0 F (25.0 C)
Dew Point: 53.1 F (11.7 C)
Relative Humidity: 43%
Pressure (altimeter): 30.29 in. Hg (1025 hPa)
ob: KDMO 281453Z AUTO 18007KT 10SM 25/12 A3029 RMK AO2 SLP248 T02500117
cycle: 15

Station Type Date Time Source
KDMO TAF UTC NOAA

Error!

Example: see airport list